createdAt,value
2022-10-11T00:01:26.300Z,102431.00
2022-10-11T00:03:52.686Z,102427.59
2022-10-11T00:06:19.053Z,102432.31
2022-10-11T00:08:45.420Z,102436.13
2022-10-11T00:11:11.797Z,102437.13
2022-10-11T00:13:38.199Z,102440.78
2022-10-11T00:16:12.182Z,102452.41
2022-10-11T00:18:39.330Z,102445.19
2022-10-11T00:21:08.871Z,102446.03
2022-10-11T00:23:35.962Z,102452.53
2022-10-11T00:26:04.899Z,102462.59
2022-10-11T00:28:32.362Z,102450.44
2022-10-11T00:30:58.927Z,102459.47
2022-10-11T00:33:25.839Z,102465.84
2022-10-11T00:35:52.223Z,102464.00
2022-10-11T00:38:18.920Z,102460.47
2022-10-11T00:40:45.588Z,102452.56
2022-10-11T00:43:17.251Z,102463.44
2022-10-11T00:46:23.828Z,102463.75
2022-10-11T00:49:07.143Z,102469.44
2022-10-11T00:51:41.105Z,102467.59
2022-10-11T00:54:13.139Z,102471.13
2022-10-11T00:56:40.703Z,102467.41
2022-10-11T00:59:13.816Z,102468.28
2022-10-11T01:01:40.810Z,102467.75
2022-10-11T01:04:07.393Z,102468.03
2022-10-11T01:06:34.899Z,102470.31
2022-10-11T01:09:01.579Z,102468.59
2022-10-11T01:11:29.821Z,102471.44
2022-10-11T01:14:39.397Z,102473.28
2022-10-11T01:17:38.134Z,102475.69
2022-10-11T01:20:22.204Z,102471.00
2022-10-11T01:22:57.701Z,102476.66
2022-10-11T01:25:36.158Z,102480.50
2022-10-11T01:28:28.657Z,102474.56
2022-10-11T01:31:03.868Z,102478.34
2022-10-11T01:33:37.878Z,102481.88
2022-10-11T01:36:30.739Z,102486.41
2022-10-11T01:39:09.650Z,102486.28
2022-10-11T01:41:46.209Z,102492.63
2022-10-11T01:44:13.762Z,102491.78
2022-10-11T01:46:40.868Z,102494.63
2022-10-11T01:49:07.913Z,102497.44
2022-10-11T01:51:42.016Z,102496.59
2022-10-11T01:54:56.548Z,102496.03
2022-10-11T01:57:53.846Z,102500.56
2022-10-11T02:00:23.908Z,102496.19
2022-10-11T02:03:19.258Z,102498.31
2022-10-11T02:05:56.488Z,102505.69
2022-10-11T02:08:50.043Z,102500.31
2022-10-11T02:11:31.773Z,102501.28
2022-10-11T02:14:12.180Z,102501.44
2022-10-11T02:16:54.229Z,102504.25
2022-10-11T02:19:26.349Z,102506.38
2022-10-11T02:21:56.654Z,102501.13
2022-10-11T02:24:30.266Z,102494.06
2022-10-11T02:26:59.392Z,102492.38
2022-10-11T02:29:29.324Z,102496.91
2022-10-11T02:31:58.174Z,102497.91
2022-10-11T02:34:31.978Z,102491.81
2022-10-11T02:37:12.162Z,102501.72
2022-10-11T02:39:50.206Z,102504.56
2022-10-11T02:42:22.956Z,102496.50
2022-10-11T02:45:00.734Z,102494.66
2022-10-11T02:47:29.633Z,102493.94
2022-10-11T02:49:56.040Z,102496.78
2022-10-11T02:52:22.421Z,102502.13
2022-10-11T02:54:48.785Z,102495.09
2022-10-11T02:57:15.171Z,102497.78
2022-10-11T02:59:41.511Z,102495.22
2022-10-11T03:02:08.002Z,102498.03
2022-10-11T03:04:34.409Z,102499.03
2022-10-11T03:07:00.792Z,102506.94
2022-10-11T03:09:27.174Z,102503.13
2022-10-11T03:11:53.514Z,102505.66
2022-10-11T03:14:19.905Z,102509.47
2022-10-11T03:16:46.299Z,102504.25
2022-10-11T03:19:16.924Z,102496.63
2022-10-11T03:21:45.449Z,102507.63
2022-10-11T03:24:11.826Z,102504.25
2022-10-11T03:26:38.217Z,102500.00
2022-10-11T03:29:04.580Z,102507.22
2022-10-11T03:31:30.939Z,102510.91
2022-10-11T03:33:57.295Z,102501.28
2022-10-11T03:36:23.725Z,102503.25
2022-10-11T03:38:50.091Z,102511.44
2022-10-11T03:41:16.434Z,102515.97
2022-10-11T03:43:42.814Z,102515.13
2022-10-11T03:46:09.396Z,102512.44
2022-10-11T03:48:35.896Z,102521.19
2022-10-11T03:51:02.659Z,102526.69
2022-10-11T03:53:29.495Z,102523.88
2022-10-11T03:55:56.921Z,102520.50
2022-10-11T03:58:23.652Z,102524.00
2022-10-11T04:00:51.846Z,102524.13
2022-10-11T04:03:18.227Z,102527.81
2022-10-11T04:05:44.992Z,102518.22
2022-10-11T04:08:12.445Z,102526.28
2022-10-11T04:10:39.939Z,102522.72
2022-10-11T04:13:06.606Z,102534.19
2022-10-11T04:15:33.025Z,102529.66
2022-10-11T04:17:59.398Z,102529.50
2022-10-11T04:20:25.766Z,102539.28
2022-10-11T04:22:52.117Z,102537.69
2022-10-11T04:25:18.464Z,102539.53
2022-10-11T04:27:44.835Z,102543.22
2022-10-11T04:30:11.916Z,102537.00
2022-10-11T04:32:38.261Z,102539.69
2022-10-11T04:35:05.004Z,102540.78
2022-10-11T04:37:31.353Z,102545.28
2022-10-11T04:39:57.698Z,102545.28
2022-10-11T04:42:24.089Z,102553.47
2022-10-11T04:44:50.465Z,102554.19
2022-10-11T04:47:16.829Z,102551.50
2022-10-11T04:49:43.202Z,102550.78
2022-10-11T04:52:09.574Z,102557.03
2022-10-11T04:54:36.566Z,102551.50
2022-10-11T04:57:03.076Z,102556.88
2022-10-11T04:59:29.510Z,102561.50
2022-10-11T05:01:56.038Z,102560.81
2022-10-11T05:04:22.414Z,102558.28
2022-10-11T05:06:48.813Z,102549.25
2022-10-11T05:09:15.257Z,102556.44
2022-10-11T05:11:41.645Z,102555.72
2022-10-11T05:14:07.983Z,102563.75
2022-10-11T05:16:35.489Z,102564.75
2022-10-11T05:19:01.881Z,102568.56
2022-10-11T05:21:29.914Z,102573.06
2022-10-11T05:23:57.430Z,102568.69
2022-10-11T05:26:27.362Z,102565.19
2022-10-11T05:28:54.969Z,102569.81
2022-10-11T05:31:22.005Z,102566.53
2022-10-11T05:33:48.616Z,102570.09
2022-10-11T05:36:15.210Z,102577.28
2022-10-11T05:38:41.589Z,102577.16
2022-10-11T05:41:11.785Z,102577.28
2022-10-11T05:43:38.166Z,102573.63
2022-10-11T05:46:05.751Z,102592.41
2022-10-11T05:48:32.681Z,102580.53
2022-10-11T05:51:05.030Z,102587.47
2022-10-11T05:53:32.258Z,102593.44
2022-10-11T05:55:59.627Z,102590.00
2022-10-11T05:58:26.386Z,102588.19
2022-10-11T06:00:53.260Z,102590.00
2022-10-11T06:03:21.017Z,102597.09
2022-10-11T06:05:47.565Z,102597.81
2022-10-11T06:08:14.758Z,102607.28
2022-10-11T06:10:41.438Z,102612.16
2022-10-11T06:13:08.894Z,102604.78
2022-10-11T06:15:38.628Z,102604.38
2022-10-11T06:18:04.994Z,102610.47
2022-10-11T06:20:31.343Z,102612.16
2022-10-11T06:22:58.783Z,102614.56
2022-10-11T06:25:25.178Z,102610.91
2022-10-11T06:27:51.561Z,102616.00
2022-10-11T06:30:17.995Z,102613.75
2022-10-11T06:32:44.466Z,102623.94
2022-10-11T06:35:10.945Z,102615.06
2022-10-11T06:37:37.326Z,102624.53
2022-10-11T06:40:04.079Z,102625.09
2022-10-11T06:42:30.427Z,102619.59
2022-10-11T06:44:56.805Z,102634.56
2022-10-11T06:47:23.166Z,102633.72
2022-10-11T06:49:49.601Z,102633.72
2022-10-11T06:52:15.965Z,102640.38
2022-10-11T06:54:44.929Z,102649.59
2022-10-11T06:57:11.931Z,102654.09
2022-10-11T06:59:38.287Z,102652.97
2022-10-11T07:02:04.701Z,102663.44
2022-10-11T07:04:31.145Z,102660.75
2022-10-11T07:06:57.540Z,102658.91
2022-10-11T07:09:23.944Z,102655.22
2022-10-11T07:11:50.287Z,102667.38
2022-10-11T07:14:16.625Z,102665.44
2022-10-11T07:16:43.020Z,102671.50
2022-10-11T07:19:10.117Z,102666.13
2022-10-11T07:21:36.822Z,102669.69
2022-10-11T07:24:03.812Z,102671.22
2022-10-11T07:26:36.809Z,102671.94
2022-10-11T07:29:05.415Z,102677.16
2022-10-11T07:31:31.870Z,102676.88
2022-10-11T07:33:58.232Z,102685.66
2022-10-11T07:36:25.670Z,102679.31
2022-10-11T07:38:52.066Z,102679.31
2022-10-11T07:41:18.833Z,102679.44
2022-10-11T07:43:47.632Z,102681.84
2022-10-11T07:46:14.190Z,102677.88
2022-10-11T07:48:41.415Z,102677.44
2022-10-11T07:51:20.340Z,102682.28
2022-10-11T07:53:49.825Z,102674.63
2022-10-11T07:56:19.422Z,102685.63
2022-10-11T07:58:53.163Z,102689.34
2022-10-11T08:01:20.578Z,102688.91
2022-10-11T08:03:47.502Z,102691.16
2022-10-11T08:06:16.412Z,102691.56
2022-10-11T08:08:42.780Z,102693.53
2022-10-11T08:11:09.546Z,102694.69
2022-10-11T08:13:35.918Z,102701.31
2022-10-11T08:16:10.115Z,102704.41
2022-10-11T08:18:36.479Z,102709.38
2022-10-11T08:21:11.158Z,102715.00
2022-10-11T08:23:37.978Z,102714.56
2022-10-11T08:26:04.799Z,102711.75
2022-10-11T08:28:32.080Z,102715.97
2022-10-11T08:30:58.666Z,102719.41
2022-10-11T08:33:26.433Z,102718.41
2022-10-11T08:35:54.044Z,102718.13
2022-10-11T08:38:21.647Z,102720.81
2022-10-11T08:40:56.306Z,102716.84
2022-10-11T08:43:58.102Z,102728.16
2022-10-11T08:46:33.329Z,102736.78
2022-10-11T08:49:01.446Z,102733.78
2022-10-11T08:51:32.436Z,102728.84
2022-10-11T08:54:07.738Z,102732.94
2022-10-11T08:56:39.761Z,102726.38
2022-10-11T08:59:11.947Z,102736.19
2022-10-11T09:01:44.839Z,102732.59
2022-10-11T09:04:15.828Z,102732.31
2022-10-11T09:06:59.244Z,102743.09
2022-10-11T09:10:06.273Z,102748.19
2022-10-11T09:12:57.585Z,102748.19
2022-10-11T09:15:40.292Z,102744.38
2022-10-11T09:18:18.530Z,102740.38
2022-10-11T09:20:52.967Z,102750.69
2022-10-11T09:24:04.241Z,102743.69
2022-10-11T09:26:55.240Z,102746.66
2022-10-11T09:29:55.517Z,102748.16
2022-10-11T09:32:24.281Z,102752.78
2022-10-11T09:34:59.853Z,102746.75
2022-10-11T09:37:58.413Z,102740.59
2022-10-11T09:40:44.505Z,102750.75
2022-10-11T09:43:11.254Z,102752.13
2022-10-11T09:45:38.685Z,102756.56
2022-10-11T09:48:07.170Z,102754.25
2022-10-11T09:50:34.338Z,102747.00
2022-10-11T09:53:04.819Z,102742.44
2022-10-11T09:55:43.261Z,102746.53
2022-10-11T09:58:30.288Z,102746.53
2022-10-11T10:01:03.928Z,102756.72
2022-10-11T10:03:37.016Z,102756.78
2022-10-11T10:06:17.558Z,102749.38
2022-10-11T10:08:46.778Z,102749.91
2022-10-11T10:11:14.720Z,102744.06
2022-10-11T10:13:51.247Z,102749.16
2022-10-11T10:16:27.800Z,102747.38
2022-10-11T10:18:54.097Z,102745.47
2022-10-11T10:21:27.704Z,102748.00
2022-10-11T10:23:55.686Z,102742.28
2022-10-11T10:26:26.543Z,102745.53
2022-10-11T10:29:01.733Z,102742.34
2022-10-11T10:32:15.371Z,102739.69
2022-10-11T10:34:38.171Z,102736.22
2022-10-11T10:37:13.422Z,102729.31
2022-10-11T10:39:50.019Z,102738.63
2022-10-11T10:42:19.580Z,102736.13
2022-10-11T10:44:56.554Z,102737.38
2022-10-11T10:47:38.697Z,102729.47
2022-10-11T10:50:15.119Z,102732.00
2022-10-11T10:53:24.395Z,102729.66
2022-10-11T10:56:08.561Z,102727.94
2022-10-11T10:58:59.876Z,102725.41
2022-10-11T11:01:29.055Z,102725.13
2022-10-11T11:04:22.179Z,102725.66
2022-10-11T11:07:04.707Z,102723.47
2022-10-11T11:09:51.740Z,102720.47
2022-10-11T11:12:35.103Z,102712.03
2022-10-11T11:15:19.852Z,102711.72
2022-10-11T11:18:16.720Z,102703.31
2022-10-11T11:21:01.761Z,102710.28
2022-10-11T11:23:45.389Z,102709.78
2022-10-11T11:26:33.138Z,102717.03
2022-10-11T11:29:07.925Z,102709.63
2022-10-11T11:31:40.417Z,102708.63
2022-10-11T11:34:23.955Z,102708.44
2022-10-11T11:37:01.656Z,102708.81
2022-10-11T11:39:45.183Z,102710.50
2022-10-11T11:42:29.917Z,102707.09
2022-10-11T11:44:59.454Z,102702.03
2022-10-11T11:47:59.749Z,102702.88
2022-10-11T11:50:27.931Z,102702.53
2022-10-11T11:53:00.643Z,102700.34
2022-10-11T11:55:33.322Z,102705.25
2022-10-11T11:58:12.247Z,102702.03
2022-10-11T12:01:02.496Z,102697.75
2022-10-11T12:03:41.791Z,102691.81
2022-10-11T12:06:17.365Z,102690.66
2022-10-11T12:08:48.307Z,102696.94
2022-10-11T12:11:26.178Z,102700.69
2022-10-11T12:13:54.704Z,102690.19
2022-10-11T12:16:22.233Z,102689.03
2022-10-11T12:18:55.974Z,102690.19
2022-10-11T12:21:35.617Z,102688.19
2022-10-11T12:24:20.181Z,102681.06
2022-10-11T12:26:48.872Z,102678.53
2022-10-11T12:29:45.417Z,102676.66
2022-10-11T12:32:36.090Z,102683.75
2022-10-11T12:35:34.745Z,102674.28
2022-10-11T12:38:06.381Z,102678.00
2022-10-11T12:40:42.441Z,102675.63
2022-10-11T12:43:26.053Z,102673.28
2022-10-11T12:45:52.574Z,102674.28
2022-10-11T12:48:38.509Z,102677.00
2022-10-11T12:51:36.153Z,102679.38
2022-10-11T12:54:31.000Z,102678.69
2022-10-11T12:57:31.919Z,102674.97
2022-10-11T13:00:18.839Z,102674.47
2022-10-11T13:02:46.202Z,102670.75
2022-10-11T13:05:22.053Z,102669.91
2022-10-11T13:07:49.558Z,102666.16
2022-10-11T13:10:24.117Z,102666.34
2022-10-11T13:12:52.863Z,102664.50
2022-10-11T13:15:21.969Z,102656.38
2022-10-11T13:17:50.215Z,102662.13
2022-10-11T13:20:17.072Z,102658.75
2022-10-11T13:22:49.643Z,102659.91
2022-10-11T13:25:20.347Z,102653.84
2022-10-11T13:27:49.287Z,102650.63
2022-10-11T13:30:23.903Z,102652.50
2022-10-11T13:32:51.525Z,102647.09
2022-10-11T13:35:32.770Z,102656.19
2022-10-11T13:37:59.781Z,102654.50
2022-10-11T13:40:27.243Z,102644.72
2022-10-11T13:42:55.503Z,102642.84
2022-10-11T13:45:24.811Z,102642.84
2022-10-11T13:47:55.666Z,102640.97
2022-10-11T13:50:23.731Z,102645.22
2022-10-11T13:52:52.689Z,102647.56
2022-10-11T13:55:34.342Z,102644.16
2022-10-11T13:58:09.314Z,102646.34
2022-10-11T14:00:39.731Z,102644.84
2022-10-11T14:03:12.146Z,102642.94
2022-10-11T14:05:51.582Z,102643.06
2022-10-11T14:08:55.130Z,102644.09
2022-10-11T14:11:47.602Z,102641.19
2022-10-11T14:14:30.546Z,102642.22
2022-10-11T14:17:10.212Z,102639.50
2022-10-11T14:19:37.196Z,102640.84
2022-10-11T14:22:05.577Z,102638.81
2022-10-11T14:24:31.935Z,102644.25
2022-10-11T14:26:59.009Z,102638.66
2022-10-11T14:29:31.371Z,102636.78
2022-10-11T14:32:06.900Z,102640.34
2022-10-11T14:34:34.473Z,102642.22
2022-10-11T14:37:00.947Z,102643.91
2022-10-11T14:39:30.638Z,102632.06
2022-10-11T14:41:57.122Z,102630.53
2022-10-11T14:44:24.010Z,102632.41
2022-10-11T14:46:54.307Z,102630.53
2022-10-11T14:49:25.065Z,102635.31
2022-10-11T14:51:54.030Z,102629.19
2022-10-11T14:54:23.466Z,102630.03
2022-10-11T14:56:51.312Z,102622.94
2022-10-11T14:59:20.384Z,102623.13
2022-10-11T15:01:51.581Z,102623.63
2022-10-11T15:04:19.993Z,102623.81
2022-10-11T15:06:46.393Z,102615.50
2022-10-11T15:09:12.822Z,102621.09
2022-10-11T15:11:39.626Z,102628.19
2022-10-11T15:14:06.569Z,102622.97
2022-10-11T15:16:34.158Z,102618.41
2022-10-11T15:19:00.700Z,102614.00
2022-10-11T15:21:29.462Z,102627.53
2022-10-11T15:23:56.216Z,102616.03
2022-10-11T15:26:25.827Z,102618.72
2022-10-11T15:28:54.665Z,102620.78
2022-10-11T15:31:21.862Z,102619.94
2022-10-11T15:33:49.020Z,102618.22
2022-10-11T15:36:20.827Z,102617.38
2022-10-11T15:38:48.496Z,102614.88
2022-10-11T15:41:19.790Z,102616.03
2022-10-11T15:43:48.056Z,102617.91
2022-10-11T15:46:17.987Z,102614.69
2022-10-11T15:48:45.493Z,102615.06
2022-10-11T15:51:11.940Z,102612.53
2022-10-11T15:53:38.579Z,102607.28
2022-10-11T15:56:11.910Z,102608.31
2022-10-11T15:58:40.722Z,102604.09
2022-10-11T16:01:09.911Z,102604.25
2022-10-11T16:03:36.513Z,102609.00
2022-10-11T16:06:05.498Z,102609.00
2022-10-11T16:08:33.649Z,102611.03
2022-10-11T16:11:00.447Z,102605.97
2022-10-11T16:13:26.978Z,102610.53
2022-10-11T16:15:53.946Z,102618.16
2022-10-11T16:18:22.065Z,102606.47
2022-10-11T16:20:51.293Z,102604.25
2022-10-11T16:23:20.063Z,102608.84
2022-10-11T16:25:47.760Z,102604.44
2022-10-11T16:28:14.256Z,102611.03
2022-10-11T16:30:43.782Z,102617.66
2022-10-11T16:33:10.245Z,102606.31
2022-10-11T16:35:41.326Z,102617.47
2022-10-11T16:38:07.712Z,102608.00
2022-10-11T16:40:35.871Z,102605.81
2022-10-11T16:43:07.375Z,102607.34
2022-10-11T16:45:34.259Z,102613.75
2022-10-11T16:48:00.659Z,102606.16
2022-10-11T16:50:27.276Z,102605.81
2022-10-11T16:52:55.363Z,102610.72
2022-10-11T16:55:22.796Z,102614.91
2022-10-11T16:57:49.165Z,102617.13
2022-10-11T17:00:15.957Z,102616.78
2022-10-11T17:02:42.371Z,102609.31
2022-10-11T17:05:08.973Z,102616.06
2022-10-11T17:07:35.510Z,102621.97
2022-10-11T17:10:01.904Z,102617.94
2022-10-11T17:12:28.285Z,102618.25
2022-10-11T17:14:54.839Z,102621.44
2022-10-11T17:17:21.213Z,102626.34
2022-10-11T17:19:47.892Z,102616.88
2022-10-11T17:22:17.568Z,102624.31
2022-10-11T17:24:44.570Z,102617.38
2022-10-11T17:27:11.093Z,102613.31
2022-10-11T17:29:37.935Z,102622.75
2022-10-11T17:32:04.501Z,102614.13
2022-10-11T17:34:31.070Z,102611.75
2022-10-11T17:36:57.448Z,102622.19
2022-10-11T17:39:24.071Z,102623.38
2022-10-11T17:41:50.660Z,102619.31
2022-10-11T17:44:17.958Z,102621.31
2022-10-11T17:46:44.649Z,102623.50
2022-10-11T17:49:12.281Z,102623.81
2022-10-11T17:51:39.903Z,102625.00
2022-10-11T17:54:06.324Z,102625.31
2022-10-11T17:56:37.629Z,102620.25
2022-10-11T17:59:05.102Z,102622.28
2022-10-11T18:01:31.769Z,102618.91
2022-10-11T18:04:00.333Z,102617.63
2022-10-11T18:06:29.216Z,102615.59
2022-10-11T18:08:57.156Z,102610.00
2022-10-11T18:11:24.044Z,102612.84
2022-10-11T18:13:52.661Z,102610.28
2022-10-11T18:16:22.038Z,102608.38
2022-10-11T18:18:49.014Z,102604.28
2022-10-11T18:21:16.260Z,102619.59
2022-10-11T18:23:42.679Z,102616.88
2022-10-11T18:26:17.638Z,102620.38
2022-10-11T18:28:45.204Z,102617.47
2022-10-11T18:31:18.519Z,102618.78
2022-10-11T18:33:45.977Z,102615.75
2022-10-11T18:36:14.319Z,102619.75
2022-10-11T18:38:46.039Z,102621.09
2022-10-11T18:41:14.990Z,102618.88
2022-10-11T18:43:41.577Z,102617.31
2022-10-11T18:46:14.982Z,102615.91
2022-10-11T18:48:46.348Z,102604.59
2022-10-11T18:51:16.396Z,102610.28
2022-10-11T18:53:42.799Z,102610.63
2022-10-11T18:56:10.702Z,102614.50
2022-10-11T18:58:38.968Z,102610.25
2022-10-11T19:01:10.400Z,102610.72
2022-10-11T19:03:37.209Z,102610.06
2022-10-11T19:06:09.324Z,102620.00
2022-10-11T19:08:35.909Z,102613.06
2022-10-11T19:11:06.984Z,102618.63
2022-10-11T19:13:34.790Z,102604.59
2022-10-11T19:16:09.943Z,102608.31
2022-10-11T19:18:41.733Z,102612.31
2022-10-11T19:21:12.808Z,102605.38
2022-10-11T19:23:42.203Z,102601.97
2022-10-11T19:26:13.486Z,102606.53
2022-10-11T19:28:39.944Z,102606.00
2022-10-11T19:31:09.929Z,102610.72
2022-10-11T19:33:36.515Z,102602.78
2022-10-11T19:36:05.261Z,102594.16
2022-10-11T19:38:35.666Z,102599.69
2022-10-11T19:41:03.600Z,102598.00
2022-10-11T19:43:30.417Z,102606.25
2022-10-11T19:46:05.239Z,102604.53
2022-10-11T19:48:31.937Z,102605.72
2022-10-11T19:51:19.169Z,102599.47
2022-10-11T19:53:46.110Z,102607.72
2022-10-11T19:56:15.339Z,102603.50
2022-10-11T19:58:42.197Z,102596.72
2022-10-11T20:01:16.404Z,102608.34
2022-10-11T20:03:44.578Z,102599.72
2022-10-11T20:06:11.422Z,102597.16
2022-10-11T20:08:38.091Z,102609.94
2022-10-11T20:11:08.155Z,102606.25
2022-10-11T20:13:36.154Z,102605.25
2022-10-11T20:16:08.026Z,102603.72
2022-10-11T20:18:34.548Z,102609.94
2022-10-11T20:21:04.426Z,102599.16
2022-10-11T20:23:31.600Z,102603.56
2022-10-11T20:25:58.968Z,102607.09
2022-10-11T20:28:27.102Z,102605.25
2022-10-11T20:30:53.788Z,102603.75
2022-10-11T20:33:20.938Z,102607.72
2022-10-11T20:35:58.558Z,102604.47
2022-10-11T20:38:24.941Z,102607.78
2022-10-11T20:40:51.304Z,102599.47
2022-10-11T20:43:17.730Z,102602.66
2022-10-11T20:45:44.118Z,102601.94
2022-10-11T20:48:10.485Z,102596.00
2022-10-11T20:50:36.857Z,102597.31
2022-10-11T20:53:03.201Z,102607.44
2022-10-11T20:55:29.638Z,102603.00
2022-10-11T20:57:56.543Z,102599.63
2022-10-11T21:00:23.128Z,102600.78
2022-10-11T21:02:51.103Z,102597.25
2022-10-11T21:05:17.474Z,102598.25
2022-10-11T21:07:44.441Z,102600.41
2022-10-11T21:10:10.810Z,102596.03
2022-10-11T21:12:37.248Z,102599.56
2022-10-11T21:15:03.770Z,102595.19
2022-10-11T21:17:30.145Z,102594.31
2022-10-11T21:19:58.558Z,102599.69
2022-10-11T21:22:24.916Z,102600.56
2022-10-11T21:24:51.265Z,102598.56
2022-10-11T21:27:17.697Z,102596.56
2022-10-11T21:29:44.060Z,102597.41
2022-10-11T21:32:14.280Z,102601.78
2022-10-11T21:34:40.963Z,102603.47
2022-10-11T21:37:07.377Z,102597.94
2022-10-11T21:39:33.831Z,102600.66
2022-10-11T21:42:00.230Z,102605.16
2022-10-11T21:44:26.616Z,102602.47
2022-10-11T21:47:08.193Z,102605.88
2022-10-11T21:49:34.941Z,102604.03
2022-10-11T21:52:01.522Z,102601.50
2022-10-11T21:54:27.874Z,102599.94
2022-10-11T21:56:54.370Z,102601.09
2022-10-11T21:59:20.833Z,102603.09
2022-10-11T22:01:47.220Z,102594.31
2022-10-11T22:04:13.622Z,102601.53
2022-10-11T22:06:40.145Z,102597.47
2022-10-11T22:09:07.498Z,102597.47
2022-10-11T22:11:34.127Z,102601.34
2022-10-11T22:14:00.863Z,102595.09
2022-10-11T22:16:27.275Z,102598.78
2022-10-11T22:18:53.879Z,102595.25
2022-10-11T22:21:23.061Z,102588.47
2022-10-11T22:23:51.525Z,102591.16
2022-10-11T22:26:20.866Z,102590.47
2022-10-11T22:28:47.519Z,102595.03
2022-10-11T22:31:15.238Z,102597.84
2022-10-11T22:33:42.036Z,102598.00
2022-10-11T22:36:10.214Z,102589.09
2022-10-11T22:38:38.529Z,102590.94
2022-10-11T22:41:05.025Z,102597.31
2022-10-11T22:43:31.572Z,102587.69
2022-10-11T22:45:57.946Z,102592.06
2022-10-11T22:48:24.466Z,102592.38
2022-10-11T22:50:51.280Z,102581.75
2022-10-11T22:53:20.093Z,102582.78
2022-10-11T22:55:47.119Z,102583.91
2022-10-11T22:58:13.821Z,102576.13
2022-10-11T23:00:40.179Z,102572.88
2022-10-11T23:03:09.542Z,102568.66
2022-10-11T23:05:35.971Z,102572.22
2022-10-11T23:08:02.358Z,102566.97
2022-10-11T23:10:28.967Z,102567.13
2022-10-11T23:12:55.346Z,102568.25
2022-10-11T23:15:21.751Z,102569.44
2022-10-11T23:17:48.105Z,102565.06
2022-10-11T23:20:14.681Z,102562.78
2022-10-11T23:22:41.027Z,102571.03
2022-10-11T23:25:08.161Z,102575.84
2022-10-11T23:27:34.702Z,102567.94
2022-10-11T23:30:01.166Z,102565.53
2022-10-11T23:32:27.507Z,102561.16
2022-10-11T23:34:53.873Z,102572.91
2022-10-11T23:37:20.472Z,102567.69
2022-10-11T23:39:46.847Z,102566.00
2022-10-11T23:42:13.186Z,102558.34
2022-10-11T23:44:39.551Z,102565.56
2022-10-11T23:47:05.922Z,102566.53
2022-10-11T23:49:32.376Z,102562.88
2022-10-11T23:51:58.717Z,102566.41
2022-10-11T23:54:25.069Z,102564.19
2022-10-11T23:56:51.433Z,102561.31
2022-10-11T23:59:17.770Z,102567.84
